Date,TemperatureHighF,TemperatureAvgF,TemperatureLowF,DewpointHighF,DewpointAvgF,DewpointLowF,HumidityHigh,HumidityAvg,HumidityLow,PressureMaxIn,PressureMinIn,WindSpeedMaxMPH,WindSpeedAvgMPH,GustSpeedMaxMPH,PrecipitationSumIn
2013-5-1,81,70,64,69,63,60,88,80,61,29.95,29.87,21,4,0,0.20
2013-5-2,75,67,64,66,62,60,89,84,72,30.00,29.88,12,2,0,0.08
2013-5-3,66,55,44,62,51,40,90,86,79,30.05,29.91,17,2,0,0.49
2013-5-4,67,55,40,47,43,36,88,67,44,30.04,29.86,20,2,0,0.04
2013-5-5,61,54,46,46,42,39,78,65,50,30.03,29.88,16,2,0,0.00
2013-5-6,72,62,52,53,49,42,78,63,50,30.03,29.94,19,4,0,0.00
2013-5-7,80,67,54,58,55,48,85,66,47,30.07,29.98,14,2,0,0.00
2013-5-8,84,72,58,61,58,52,82,63,43,30.12,30.03,10,1,0,0.00
2013-5-9,87,75,64,65,62,57,81,65,45,30.14,30.02,14,2,0,0.00
2013-5-10,80,71,63,67,64,60,91,78,64,30.07,29.89,19,2,0,1.67
2013-5-11,82,71,64,67,62,59,84,74,60,30.09,29.95,14,1,0,0.04
2013-5-12,76,66,58,59,54,43,84,65,47,30.20,30.07,12,2,0,0.00
2013-5-13,77,66,51,52,46,41,69,50,37,30.31,30.18,14,1,0,0.00
2013-5-14,84,73,59,58,55,49,72,55,40,30.28,30.14,14,2,0,0.00
2013-5-15,87,75,62,62,58,52,71,57,43,30.21,30.03,14,2,0,0.00
2013-5-16,86,74,63,65,61,56,79,65,47,30.05,29.89,22,2,0,0.06
2013-5-17,89,79,71,71,68,63,82,70,55,30.02,29.94,11,2,0,0.02
2013-5-18,92,82,74,73,70,67,81,68,52,30.07,29.98,15,2,0,0.00
2013-5-19,91,81,72,72,70,66,84,69,52,30.03,29.94,19,2,0,0.00
2013-5-20,93,82,75,72,70,69,81,68,51,30.03,29.90,18,4,0,0.00
2013-5-21,94,83,74,72,70,69,84,67,47,29.99,29.81,16,3,0,0.00
2013-5-22,83,74,65,70,67,62,91,78,63,29.99,29.87,22,2,0,1.14
2013-5-23,91,81,69,73,69,64,84,68,51,30.08,29.97,12,1,0,0.02
2013-5-24,86,78,70,70,66,60,85,67,53,30.21,30.06,16,3,0,0.00
2013-5-25,85,74,62,59,55,51,69,53,39,30.28,30.16,15,2,0,0.00
2013-5-26,92,78,65,64,60,54,75,56,34,30.22,30.11,10,1,0,0.00
2013-5-27,88,78,67,68,64,59,76,63,47,30.15,30.02,15,2,0,0.00
2013-5-28,89,79,68,68,64,61,79,61,46,30.09,30.00,14,2,0,0.00
2013-5-29,90,78,71,75,69,61,84,73,55,30.05,29.95,13,2,0,0.39
2013-5-30,90,80,74,75,71,69,85,76,58,30.04,29.95,18,3,0,0.14
2013-5-31,92,83,74,77,72,70,86,72,56,30.03,29.93,22,3,0,0.04